createdAt,value
2023-02-11T00:00:20.660Z,2.81
2023-02-11T00:02:48.073Z,2.88
2023-02-11T00:05:15.377Z,2.89
2023-02-11T00:07:41.961Z,2.86
2023-02-11T00:10:09.029Z,2.83
2023-02-11T00:12:36.590Z,2.80
2023-02-11T00:15:03.756Z,2.82
2023-02-11T00:17:30.112Z,2.81
2023-02-11T00:19:56.510Z,2.79
2023-02-11T00:22:22.927Z,2.79
2023-02-11T00:24:49.360Z,2.77
2023-02-11T00:27:16.004Z,2.72
2023-02-11T00:29:42.350Z,2.55
2023-02-11T00:32:10.572Z,2.51
2023-02-11T00:34:37.982Z,2.26
2023-02-11T00:37:05.066Z,2.23
2023-02-11T00:39:31.523Z,2.23
2023-02-11T00:41:58.490Z,2.29
2023-02-11T00:44:25.086Z,2.28
2023-02-11T00:46:51.433Z,2.35
2023-02-11T00:49:17.972Z,2.43
2023-02-11T00:51:44.363Z,2.41
2023-02-11T00:54:10.794Z,2.36
2023-02-11T00:56:37.224Z,2.42
2023-02-11T00:59:03.776Z,2.50
2023-02-11T01:01:30.239Z,2.45
2023-02-11T01:03:56.598Z,2.38
2023-02-11T01:06:23.235Z,2.43
2023-02-11T01:08:49.604Z,2.45
2023-02-11T01:11:19.475Z,2.31
2023-02-11T01:13:47.126Z,2.11
2023-02-11T01:16:13.596Z,2.04
2023-02-11T01:18:41.864Z,2.13
2023-02-11T01:21:08.323Z,2.14
2023-02-11T01:23:34.670Z,2.15
2023-02-11T01:26:01.381Z,2.14
2023-02-11T01:28:29.159Z,1.98
2023-02-11T01:30:55.985Z,1.76
2023-02-11T01:33:23.085Z,1.78
2023-02-11T01:35:50.090Z,1.99
2023-02-11T01:38:19.181Z,2.08
2023-02-11T01:40:54.295Z,1.74
2023-02-11T01:43:21.355Z,1.88
2023-02-11T01:45:47.664Z,1.77
2023-02-11T01:48:25.028Z,1.87
2023-02-11T01:50:56.504Z,2.04
2023-02-11T01:53:41.592Z,2.03
2023-02-11T01:56:27.549Z,1.96
2023-02-11T01:58:59.084Z,2.02
2023-02-11T02:01:27.567Z,1.94
2023-02-11T02:03:59.674Z,2.03
2023-02-11T02:06:33.939Z,2.00
2023-02-11T02:09:06.788Z,1.99
2023-02-11T02:11:33.261Z,1.90
2023-02-11T02:13:59.729Z,1.79
2023-02-11T02:16:37.074Z,1.95
2023-02-11T02:19:40.411Z,1.88
2023-02-11T02:22:28.376Z,1.87
2023-02-11T02:25:21.344Z,1.79
2023-02-11T02:28:36.748Z,1.80
2023-02-11T02:31:47.065Z,1.77
2023-02-11T02:34:34.206Z,1.71
2023-02-11T02:37:17.997Z,1.76
2023-02-11T02:39:46.813Z,1.61
2023-02-11T02:42:14.043Z,1.51
2023-02-11T02:44:40.464Z,1.49
2023-02-11T02:47:06.949Z,1.52
2023-02-11T02:49:33.292Z,1.49
2023-02-11T02:52:34.060Z,1.52
2023-02-11T02:55:30.956Z,1.61
2023-02-11T02:58:21.588Z,1.57
2023-02-11T03:01:08.070Z,1.56
2023-02-11T03:03:56.049Z,1.44
2023-02-11T03:06:34.578Z,1.33
2023-02-11T03:09:17.885Z,1.38
2023-02-11T03:11:45.150Z,1.51
2023-02-11T03:14:15.279Z,1.53
2023-02-11T03:16:43.437Z,1.47
2023-02-11T03:19:15.264Z,1.55
2023-02-11T03:21:44.059Z,1.51
2023-02-11T03:24:20.478Z,1.53
2023-02-11T03:26:51.349Z,1.52
2023-02-11T03:29:33.282Z,1.53
2023-02-11T03:32:32.808Z,1.51
2023-02-11T03:35:07.531Z,1.32
2023-02-11T03:38:05.267Z,1.35
2023-02-11T03:40:36.499Z,1.25
2023-02-11T03:43:09.530Z,1.37
2023-02-11T03:45:38.340Z,1.34
2023-02-11T03:48:19.970Z,1.39
2023-02-11T03:50:48.301Z,1.36
2023-02-11T03:53:15.781Z,1.36
2023-02-11T03:55:43.945Z,1.44
2023-02-11T03:58:10.779Z,1.42
2023-02-11T04:00:41.114Z,1.46
2023-02-11T04:03:09.410Z,1.40
2023-02-11T04:05:36.143Z,1.38
2023-02-11T04:08:02.769Z,1.34
2023-02-11T04:10:29.173Z,1.32
2023-02-11T04:12:55.584Z,1.38
2023-02-11T04:15:22.255Z,1.41
2023-02-11T04:17:48.649Z,1.32
2023-02-11T04:20:15.041Z,1.28
2023-02-11T04:22:41.480Z,1.28
2023-02-11T04:25:09.490Z,1.25
2023-02-11T04:27:36.237Z,1.26
2023-02-11T04:30:05.302Z,1.25
2023-02-11T04:32:31.813Z,1.18
2023-02-11T04:34:58.156Z,1.19
2023-02-11T04:37:24.514Z,1.24
2023-02-11T04:39:50.852Z,1.20
2023-02-11T04:42:17.213Z,1.19
2023-02-11T04:44:43.548Z,1.31
2023-02-11T04:47:10.162Z,1.35
2023-02-11T04:49:36.578Z,1.28
2023-02-11T04:52:02.926Z,1.08
2023-02-11T04:54:29.278Z,1.11
2023-02-11T04:56:55.681Z,1.16
2023-02-11T04:59:22.010Z,1.17
2023-02-11T05:01:49.410Z,1.15
2023-02-11T05:04:16.558Z,1.21
2023-02-11T05:06:42.957Z,1.15
2023-02-11T05:09:11.797Z,1.17
2023-02-11T05:11:39.385Z,1.22
2023-02-11T05:14:06.545Z,1.16
2023-02-11T05:16:34.431Z,1.21
2023-02-11T05:19:00.941Z,1.15
2023-02-11T05:21:27.348Z,1.04
2023-02-11T05:23:53.672Z,0.98
2023-02-11T05:26:20.142Z,1.11
2023-02-11T05:28:46.610Z,1.04
2023-02-11T05:31:14.513Z,0.99
2023-02-11T05:33:41.323Z,1.06
2023-02-11T05:36:10.378Z,0.93
2023-02-11T05:38:37.989Z,0.93
2023-02-11T05:41:05.907Z,0.91
2023-02-11T05:43:32.501Z,0.89
2023-02-11T05:45:58.880Z,0.91
2023-02-11T05:48:25.248Z,0.82
2023-02-11T05:50:51.618Z,0.88
2023-02-11T05:53:17.999Z,0.84
2023-02-11T05:55:44.700Z,0.85
2023-02-11T05:58:11.192Z,0.80
2023-02-11T06:00:37.860Z,0.71
2023-02-11T06:03:04.523Z,0.75
2023-02-11T06:05:31.181Z,0.75
2023-02-11T06:07:57.613Z,0.73
2023-02-11T06:10:24.077Z,0.82
2023-02-11T06:12:50.470Z,0.79
2023-02-11T06:15:17.029Z,0.60
2023-02-11T06:17:43.357Z,0.60
2023-02-11T06:20:10.882Z,0.67
2023-02-11T06:22:37.506Z,0.67
2023-02-11T06:25:04.247Z,0.70
2023-02-11T06:27:30.596Z,0.72
2023-02-11T06:29:56.970Z,0.73
2023-02-11T06:32:43.261Z,0.69
2023-02-11T06:35:11.916Z,0.77
2023-02-11T06:37:39.397Z,0.77
2023-02-11T06:40:06.252Z,0.81
2023-02-11T06:42:32.632Z,0.75
2023-02-11T06:44:58.963Z,0.79
2023-02-11T06:47:25.375Z,0.78
2023-02-11T06:49:51.742Z,0.68
2023-02-11T06:52:18.076Z,0.78
2023-02-11T06:54:44.502Z,0.67
2023-02-11T06:57:10.872Z,0.69
2023-02-11T06:59:37.293Z,0.79
2023-02-11T07:02:03.721Z,0.30
2023-02-11T07:04:30.094Z,0.28
2023-02-11T07:06:56.462Z,0.25
2023-02-11T07:09:23.165Z,0.38
2023-02-11T07:11:49.528Z,0.55
2023-02-11T07:14:15.866Z,0.49
2023-02-11T07:16:42.288Z,0.03
2023-02-11T07:19:08.626Z,-0.31
2023-02-11T07:21:35.064Z,-0.02
2023-02-11T07:24:02.015Z,0.16
2023-02-11T07:26:29.244Z,0.37
2023-02-11T07:28:55.609Z,0.56
2023-02-11T07:31:25.168Z,0.65
2023-02-11T07:33:53.598Z,0.67
2023-02-11T07:36:21.563Z,-0.42
2023-02-11T07:38:48.722Z,-0.27
2023-02-11T07:41:18.049Z,-0.41
2023-02-11T07:43:45.241Z,-0.50
2023-02-11T07:46:32.034Z,-0.14
2023-02-11T07:48:58.457Z,0.16
2023-02-11T07:51:27.625Z,0.45
2023-02-11T07:53:55.504Z,0.50
2023-02-11T07:56:22.905Z,0.06
2023-02-11T07:58:49.855Z,-0.08
2023-02-11T08:01:25.945Z,-0.01
2023-02-11T08:03:52.995Z,-0.08
2023-02-11T08:06:21.494Z,0.15
2023-02-11T08:08:48.471Z,0.49
2023-02-11T08:11:20.410Z,0.34
2023-02-11T08:13:46.786Z,0.06
2023-02-11T08:16:25.183Z,0.10
2023-02-11T08:18:53.062Z,0.52
2023-02-11T08:21:20.814Z,0.85
2023-02-11T08:23:47.619Z,1.08
2023-02-11T08:26:19.834Z,1.14
2023-02-11T08:28:47.693Z,1.32
2023-02-11T08:31:17.877Z,1.40
2023-02-11T08:33:45.207Z,1.50
2023-02-11T08:36:18.014Z,1.72
2023-02-11T08:38:44.783Z,1.86
2023-02-11T08:41:11.447Z,1.93
2023-02-11T08:43:41.774Z,2.02
2023-02-11T08:46:10.102Z,2.13
2023-02-11T08:48:36.464Z,2.05
2023-02-11T08:51:08.095Z,2.09
2023-02-11T08:53:35.473Z,2.14
2023-02-11T08:56:02.301Z,2.31
2023-02-11T08:58:29.665Z,2.21
2023-02-11T09:00:56.186Z,2.19
2023-02-11T09:03:22.679Z,2.33
2023-02-11T09:05:50.183Z,2.46
2023-02-11T09:08:17.057Z,2.46
2023-02-11T09:10:43.552Z,2.51
2023-02-11T09:13:10.163Z,2.66
2023-02-11T09:15:37.032Z,2.68
2023-02-11T09:18:04.395Z,2.82
2023-02-11T09:20:30.925Z,2.89
2023-02-11T09:22:58.953Z,3.03
2023-02-11T09:25:25.883Z,3.12
2023-02-11T09:27:53.672Z,3.06
2023-02-11T09:30:20.085Z,3.27
2023-02-11T09:32:46.462Z,3.31
2023-02-11T09:35:12.785Z,3.42
2023-02-11T09:37:39.145Z,3.47
2023-02-11T09:40:06.014Z,3.28
2023-02-11T09:43:01.763Z,3.18
2023-02-11T09:45:31.184Z,2.70
2023-02-11T09:48:27.149Z,2.77
2023-02-11T09:50:58.637Z,2.84
2023-02-11T09:53:26.271Z,2.91
2023-02-11T09:55:59.403Z,2.60
2023-02-11T09:58:30.345Z,2.34
2023-02-11T10:01:04.767Z,2.65
2023-02-11T10:04:03.076Z,2.83
2023-02-11T10:06:47.789Z,3.21
2023-02-11T10:09:30.318Z,3.28
2023-02-11T10:12:16.389Z,3.01
2023-02-11T10:14:55.193Z,3.21
2023-02-11T10:17:56.972Z,3.33
2023-02-11T10:20:32.444Z,3.62
2023-02-11T10:23:02.316Z,3.75
2023-02-11T10:25:36.307Z,3.78
2023-02-11T10:28:13.896Z,3.96
2023-02-11T10:30:59.377Z,4.27
2023-02-11T10:33:46.371Z,4.56
2023-02-11T10:36:14.393Z,4.76
2023-02-11T10:38:40.794Z,4.89
2023-02-11T10:41:13.583Z,4.84
2023-02-11T10:43:42.306Z,4.86
2023-02-11T10:46:18.183Z,4.79
2023-02-11T10:48:53.606Z,5.05
2023-02-11T10:51:34.001Z,5.26
2023-02-11T10:54:24.720Z,5.46
2023-02-11T10:56:58.670Z,5.63
2023-02-11T10:59:40.037Z,5.81
2023-02-11T11:02:24.525Z,5.80
2023-02-11T11:04:57.439Z,5.93
2023-02-11T11:07:29.672Z,6.03
2023-02-11T11:10:00.261Z,6.05
2023-02-11T11:12:45.205Z,6.18
2023-02-11T11:15:11.544Z,6.05
2023-02-11T11:17:38.316Z,5.96
2023-02-11T11:20:27.727Z,6.17
2023-02-11T11:23:10.723Z,6.34
2023-02-11T11:25:41.499Z,6.60
2023-02-11T11:28:20.425Z,6.68
2023-02-11T11:30:47.132Z,6.87
2023-02-11T11:33:24.663Z,7.13
2023-02-11T11:36:09.318Z,7.10
2023-02-11T11:38:42.745Z,7.28
2023-02-11T11:41:16.038Z,7.35
2023-02-11T11:44:03.765Z,7.50
2023-02-11T11:46:38.051Z,7.61
2023-02-11T11:49:14.636Z,7.44
2023-02-11T11:51:45.514Z,7.55
2023-02-11T11:54:15.883Z,7.54
2023-02-11T11:56:52.101Z,7.80
2023-02-11T11:59:18.776Z,7.99
2023-02-11T12:01:54.225Z,7.98
2023-02-11T12:04:35.973Z,8.31
2023-02-11T12:07:16.348Z,8.23
2023-02-11T12:10:16.800Z,8.52
2023-02-11T12:13:08.480Z,8.81
2023-02-11T12:15:53.170Z,9.03
2023-02-11T12:18:38.023Z,9.30
2023-02-11T12:21:24.048Z,9.27
2023-02-11T12:23:53.407Z,9.38
2023-02-11T12:26:23.601Z,9.35
2023-02-11T12:29:13.953Z,9.55
2023-02-11T12:31:52.674Z,9.79
2023-02-11T12:34:36.673Z,9.87
2023-02-11T12:37:32.406Z,9.63
2023-02-11T12:40:22.778Z,10.10
2023-02-11T12:43:16.808Z,9.86
2023-02-11T12:46:11.686Z,10.43
2023-02-11T12:49:16.116Z,11.05
2023-02-11T12:51:51.322Z,11.56
2023-02-11T12:54:24.344Z,11.25
2023-02-11T12:56:59.090Z,11.31
2023-02-11T12:59:33.348Z,11.74
2023-02-11T13:02:03.849Z,12.39
2023-02-11T13:04:44.597Z,12.86
2023-02-11T13:07:19.690Z,13.12
2023-02-11T13:09:56.196Z,13.31
2023-02-11T13:12:42.467Z,13.42
2023-02-11T13:15:14.589Z,13.90
2023-02-11T13:17:48.697Z,14.20
2023-02-11T13:20:28.278Z,14.23
2023-02-11T13:23:05.841Z,14.32
2023-02-11T13:25:41.592Z,13.78
2023-02-11T13:28:25.490Z,13.71
2023-02-11T13:31:02.043Z,13.95
2023-02-11T13:33:42.882Z,14.37
2023-02-11T13:36:09.157Z,14.51
2023-02-11T13:38:37.120Z,14.55
2023-02-11T13:41:17.150Z,14.59
2023-02-11T13:43:44.442Z,14.84
2023-02-11T13:46:13.648Z,15.03
2023-02-11T13:48:48.291Z,15.06
2023-02-11T13:51:32.317Z,15.31
2023-02-11T13:53:59.166Z,15.52
2023-02-11T13:56:31.639Z,15.69
2023-02-11T13:59:02.154Z,15.78
2023-02-11T14:01:42.196Z,15.67
2023-02-11T14:04:42.999Z,14.97
2023-02-11T14:07:50.089Z,14.60
2023-02-11T14:10:35.002Z,13.68
2023-02-11T14:13:23.657Z,14.31
2023-02-11T14:16:36.345Z,14.28
2023-02-11T14:19:03.667Z,14.17
2023-02-11T14:21:42.258Z,14.24
2023-02-11T14:24:12.829Z,14.52
2023-02-11T14:27:20.629Z,13.95
2023-02-11T14:29:53.459Z,14.50
2023-02-11T14:32:41.379Z,14.61
2023-02-11T14:35:28.876Z,13.90
2023-02-11T14:38:25.175Z,13.78
2023-02-11T14:41:09.370Z,14.08
2023-02-11T14:43:41.812Z,14.13
2023-02-11T14:46:08.735Z,13.79
2023-02-11T14:48:37.969Z,13.86
2023-02-11T14:51:09.932Z,13.76
2023-02-11T14:53:37.857Z,13.95
2023-02-11T14:56:18.252Z,13.47
2023-02-11T14:58:51.559Z,13.58
2023-02-11T15:01:35.213Z,13.76
2023-02-11T15:04:04.169Z,13.92
2023-02-11T15:06:31.840Z,13.75
2023-02-11T15:09:00.696Z,13.52
2023-02-11T15:11:30.734Z,13.83
2023-02-11T15:14:00.425Z,13.86
2023-02-11T15:16:28.899Z,14.03
2023-02-11T15:19:01.184Z,14.13
2023-02-11T15:21:30.842Z,14.20
2023-02-11T15:23:59.052Z,14.33
2023-02-11T15:26:25.685Z,14.46
2023-02-11T15:28:52.442Z,14.44
2023-02-11T15:31:23.305Z,14.39
2023-02-11T15:33:50.560Z,14.27
2023-02-11T15:36:19.810Z,14.17
2023-02-11T15:38:46.285Z,14.07
2023-02-11T15:41:36.436Z,14.13
2023-02-11T15:44:03.206Z,14.14
2023-02-11T15:46:38.081Z,14.13
2023-02-11T15:49:05.303Z,14.20
2023-02-11T15:51:35.393Z,13.98
2023-02-11T15:54:04.946Z,13.91
2023-02-11T15:56:44.499Z,13.93
2023-02-11T15:59:22.412Z,13.81
2023-02-11T16:01:49.379Z,13.81
2023-02-11T16:04:24.778Z,13.69
2023-02-11T16:06:52.139Z,13.42
2023-02-11T16:09:18.393Z,13.32
2023-02-11T16:11:47.438Z,13.18
2023-02-11T16:14:21.801Z,12.99
2023-02-11T16:16:51.006Z,12.89
2023-02-11T16:19:22.291Z,12.91
2023-02-11T16:21:50.850Z,12.73
2023-02-11T16:24:24.880Z,12.72
2023-02-11T16:26:54.709Z,12.64
2023-02-11T16:29:29.241Z,12.64
2023-02-11T16:32:08.339Z,12.50
2023-02-11T16:34:35.016Z,12.46
2023-02-11T16:37:04.293Z,12.43
2023-02-11T16:39:30.747Z,12.38
2023-02-11T16:41:57.161Z,12.28
2023-02-11T16:44:23.973Z,12.21
2023-02-11T16:46:51.970Z,12.09
2023-02-11T16:49:23.221Z,12.02
2023-02-11T16:51:51.543Z,11.85
2023-02-11T16:54:19.344Z,11.83
2023-02-11T16:56:45.935Z,11.68
2023-02-11T16:59:12.394Z,11.59
2023-02-11T17:01:41.059Z,11.51
2023-02-11T17:04:15.147Z,11.52
2023-02-11T17:06:41.609Z,11.48
2023-02-11T17:09:15.305Z,11.42
2023-02-11T17:11:41.625Z,11.45
2023-02-11T17:14:07.950Z,11.40
2023-02-11T17:16:34.517Z,11.46
2023-02-11T17:19:00.919Z,11.42
2023-02-11T17:21:29.901Z,11.20
2023-02-11T17:23:56.433Z,11.03
2023-02-11T17:26:22.744Z,10.93
2023-02-11T17:28:49.064Z,10.43
2023-02-11T17:31:15.900Z,10.30
2023-02-11T17:33:42.565Z,10.41
2023-02-11T17:36:09.780Z,10.40
2023-02-11T17:38:37.345Z,10.31
2023-02-11T17:41:05.044Z,10.23
2023-02-11T17:43:31.766Z,10.07
2023-02-11T17:45:58.295Z,9.89
2023-02-11T17:48:24.953Z,9.73
2023-02-11T17:50:51.328Z,9.77
2023-02-11T17:53:17.649Z,9.77
2023-02-11T17:55:43.973Z,9.74
2023-02-11T17:58:10.331Z,9.69
2023-02-11T18:00:36.889Z,9.53
2023-02-11T18:03:03.654Z,9.51
2023-02-11T18:05:34.830Z,9.36
2023-02-11T18:08:01.182Z,9.30
2023-02-11T18:10:27.692Z,9.27
2023-02-11T18:12:54.089Z,8.93
2023-02-11T18:15:20.429Z,9.01
2023-02-11T18:17:46.771Z,9.05
2023-02-11T18:20:13.404Z,9.00
2023-02-11T18:22:40.885Z,8.92
2023-02-11T18:25:08.589Z,8.89
2023-02-11T18:27:34.953Z,8.90
2023-02-11T18:30:01.382Z,8.87
2023-02-11T18:32:27.772Z,8.76
2023-02-11T18:34:54.204Z,8.65
2023-02-11T18:37:20.572Z,8.55
2023-02-11T18:39:46.895Z,8.47
2023-02-11T18:42:13.467Z,8.44
2023-02-11T18:44:39.847Z,8.42
2023-02-11T18:47:06.450Z,8.30
2023-02-11T18:49:35.495Z,8.27
2023-02-11T18:52:02.330Z,8.19
2023-02-11T18:54:28.656Z,8.13
2023-02-11T18:56:54.970Z,8.01
2023-02-11T18:59:21.281Z,7.94
2023-02-11T19:01:47.655Z,7.85
2023-02-11T19:04:19.579Z,7.87
2023-02-11T19:06:49.351Z,7.77
2023-02-11T19:09:18.618Z,7.71
2023-02-11T19:11:52.104Z,7.73
2023-02-11T19:14:27.001Z,7.63
2023-02-11T19:16:56.282Z,7.61
2023-02-11T19:19:28.163Z,7.60
2023-02-11T19:21:55.346Z,7.60
2023-02-11T19:24:23.439Z,7.54
2023-02-11T19:26:52.417Z,7.35
2023-02-11T19:29:19.162Z,7.25
2023-02-11T19:31:45.796Z,7.25
2023-02-11T19:34:14.054Z,7.28
2023-02-11T19:36:40.733Z,7.20
2023-02-11T19:39:07.409Z,7.13
2023-02-11T19:41:34.662Z,7.16
2023-02-11T19:44:02.709Z,7.15
2023-02-11T19:46:31.895Z,7.15
2023-02-11T19:49:00.009Z,7.05
2023-02-11T19:51:26.681Z,7.00
2023-02-11T19:53:53.765Z,6.99
2023-02-11T19:56:20.999Z,6.92
2023-02-11T19:58:47.809Z,6.88
2023-02-11T20:01:17.279Z,6.73
2023-02-11T20:03:43.780Z,6.63
2023-02-11T20:06:14.463Z,6.67
2023-02-11T20:08:41.356Z,6.60
2023-02-11T20:11:12.289Z,6.57
2023-02-11T20:13:39.259Z,6.50
2023-02-11T20:16:09.609Z,6.52
2023-02-11T20:18:36.865Z,6.48
2023-02-11T20:21:10.057Z,6.40
2023-02-11T20:23:38.483Z,6.36
2023-02-11T20:26:13.575Z,6.40
2023-02-11T20:28:40.052Z,6.39
2023-02-11T20:31:06.979Z,6.41
2023-02-11T20:33:34.640Z,6.37
2023-02-11T20:36:09.989Z,6.41
2023-02-11T20:38:37.492Z,6.41
2023-02-11T20:41:13.744Z,6.30
2023-02-11T20:43:46.112Z,6.24
2023-02-11T20:46:14.944Z,6.21
2023-02-11T20:48:41.590Z,6.07
2023-02-11T20:51:14.870Z,5.98
2023-02-11T20:53:43.961Z,5.96
2023-02-11T20:56:11.902Z,5.93
2023-02-11T20:58:39.186Z,5.84
2023-02-11T21:01:22.262Z,5.78
2023-02-11T21:03:54.537Z,5.69
2023-02-11T21:06:22.204Z,5.74
2023-02-11T21:08:48.642Z,5.67
2023-02-11T21:11:15.209Z,5.72
2023-02-11T21:13:43.149Z,5.69
2023-02-11T21:16:14.497Z,5.65
2023-02-11T21:18:41.333Z,5.70
2023-02-11T21:21:07.934Z,5.61
2023-02-11T21:23:35.731Z,5.57
2023-02-11T21:26:02.188Z,5.43
2023-02-11T21:28:28.652Z,5.41
2023-02-11T21:30:56.654Z,5.42
2023-02-11T21:33:24.734Z,5.42
2023-02-11T21:35:58.057Z,5.28
2023-02-11T21:38:25.222Z,5.27
2023-02-11T21:40:52.205Z,5.29
2023-02-11T21:43:18.976Z,5.29
2023-02-11T21:45:46.965Z,5.30
2023-02-11T21:48:13.868Z,5.27
2023-02-11T21:50:42.134Z,5.20
2023-02-11T21:53:09.386Z,5.24
2023-02-11T21:55:37.021Z,5.12
2023-02-11T21:58:04.139Z,4.92
2023-02-11T22:00:31.134Z,5.00
2023-02-11T22:02:57.485Z,4.96
2023-02-11T22:05:24.182Z,4.92
2023-02-11T22:07:51.132Z,4.83
2023-02-11T22:10:18.995Z,4.86
2023-02-11T22:12:45.931Z,4.93
2023-02-11T22:15:12.936Z,4.90
2023-02-11T22:17:39.405Z,4.89
2023-02-11T22:20:06.826Z,4.85
2023-02-11T22:22:33.303Z,4.78
2023-02-11T22:25:03.189Z,4.69
2023-02-11T22:27:29.558Z,4.64
2023-02-11T22:29:56.118Z,4.62
2023-02-11T22:32:22.501Z,4.63
2023-02-11T22:34:50.873Z,4.67
2023-02-11T22:37:18.507Z,4.55
2023-02-11T22:39:44.845Z,4.53
2023-02-11T22:42:11.288Z,4.59
2023-02-11T22:44:37.922Z,4.46
2023-02-11T22:47:04.319Z,4.53
2023-02-11T22:49:33.022Z,4.62
2023-02-11T22:51:59.525Z,4.45
2023-02-11T22:54:25.874Z,4.44
2023-02-11T22:56:53.112Z,4.54
2023-02-11T22:59:20.453Z,4.52
2023-02-11T23:01:47.015Z,4.47
2023-02-11T23:04:15.069Z,4.43
2023-02-11T23:06:41.484Z,4.39
2023-02-11T23:09:10.024Z,4.30
2023-02-11T23:11:36.472Z,4.27
2023-02-11T23:14:03.296Z,4.20
2023-02-11T23:16:32.302Z,4.18
2023-02-11T23:19:00.243Z,4.32
2023-02-11T23:21:29.369Z,4.35
2023-02-11T23:24:01.278Z,4.18
2023-02-11T23:26:28.616Z,4.23
2023-02-11T23:28:55.786Z,4.26
2023-02-11T23:31:27.243Z,4.30
2023-02-11T23:33:54.270Z,4.32
2023-02-11T23:36:21.422Z,4.14
2023-02-11T23:38:48.863Z,4.10
2023-02-11T23:41:15.977Z,4.09
2023-02-11T23:43:43.080Z,4.10
2023-02-11T23:46:10.371Z,4.18
2023-02-11T23:48:37.507Z,4.17
2023-02-11T23:51:04.201Z,4.21
2023-02-11T23:53:30.586Z,4.12
2023-02-11T23:55:57.186Z,4.09
2023-02-11T23:58:23.633Z,4.00
